sensor_id;sensor_type;location;lat;lon;timestamp;pressure;altitude;pressure_sealevel;temperature;humidity
68230;BME280;55048;52.220;5.160;2023-04-22T00:01:44;100754.47;;;11.39;80.92
68230;BME280;55048;52.220;5.160;2023-04-22T00:04:10;100755.03;;;11.41;81.11
68230;BME280;55048;52.220;5.160;2023-04-22T00:06:35;100761.81;;;11.48;81.11
68230;BME280;55048;52.220;5.160;2023-04-22T00:09:01;100751.75;;;11.34;81.50
68230;BME280;55048;52.220;5.160;2023-04-22T00:11:26;100768.69;;;11.44;81.33
68230;BME280;55048;52.220;5.160;2023-04-22T00:13:52;100768.41;;;11.46;81.43
68230;BME280;55048;52.220;5.160;2023-04-22T00:16:18;100729.97;;;11.20;81.52
68230;BME280;55048;52.220;5.160;2023-04-22T00:18:43;100711.34;;;11.03;81.76
68230;BME280;55048;52.220;5.160;2023-04-22T00:21:09;100766.34;;;11.31;81.75
68230;BME280;55048;52.220;5.160;2023-04-22T00:23:34;100756.41;;;11.27;81.94
68230;BME280;55048;52.220;5.160;2023-04-22T00:26:00;100680.38;;;10.80;82.03
68230;BME280;55048;52.220;5.160;2023-04-22T00:28:25;100725.44;;;11.04;81.79
68230;BME280;55048;52.220;5.160;2023-04-22T00:30:51;100684.63;;;10.81;81.88
68230;BME280;55048;52.220;5.160;2023-04-22T00:33:16;100712.38;;;11.02;81.78
68230;BME280;55048;52.220;5.160;2023-04-22T00:35:42;100719.31;;;11.03;81.66
68230;BME280;55048;52.220;5.160;2023-04-22T00:38:07;100671.50;;;10.75;81.43
68230;BME280;55048;52.220;5.160;2023-04-22T00:40:32;100747.28;;;11.22;81.37
68230;BME280;55048;52.220;5.160;2023-04-22T00:42:58;100746.75;;;11.20;81.36
68230;BME280;55048;52.220;5.160;2023-04-22T00:45:25;100749.88;;;11.17;81.05
68230;BME280;55048;52.220;5.160;2023-04-22T00:47:51;100718.91;;;10.94;80.79
68230;BME280;55048;52.220;5.160;2023-04-22T00:50:16;100748.19;;;11.11;81.00
68230;BME280;55048;52.220;5.160;2023-04-22T00:52:42;100747.88;;;11.08;81.18
68230;BME280;55048;52.220;5.160;2023-04-22T00:55:07;100713.91;;;10.81;81.21
68230;BME280;55048;52.220;5.160;2023-04-22T00:57:34;100760.75;;;10.99;81.14
68230;BME280;55048;52.220;5.160;2023-04-22T01:00:00;100703.16;;;10.59;81.21
68230;BME280;55048;52.220;5.160;2023-04-22T01:02:26;100713.00;;;10.59;81.37
68230;BME280;55048;52.220;5.160;2023-04-22T01:04:52;100721.53;;;10.61;81.71
68230;BME280;55048;52.220;5.160;2023-04-22T01:07:20;100756.16;;;10.78;81.94
68230;BME280;55048;52.220;5.160;2023-04-22T01:09:46;100762.66;;;10.70;82.17
68230;BME280;55048;52.220;5.160;2023-04-22T01:12:11;100716.31;;;10.37;82.04
68230;BME280;55048;52.220;5.160;2023-04-22T01:14:37;100743.25;;;10.41;82.70
68230;BME280;55048;52.220;5.160;2023-04-22T01:17:03;100753.88;;;10.41;82.83
68230;BME280;55048;52.220;5.160;2023-04-22T01:19:28;100744.19;;;10.35;82.94
68230;BME280;55048;52.220;5.160;2023-04-22T01:21:54;100765.16;;;10.48;83.29
68230;BME280;55048;52.220;5.160;2023-04-22T01:24:20;100776.06;;;10.46;83.23
68230;BME280;55048;52.220;5.160;2023-04-22T01:26:47;100763.03;;;10.33;83.46
68230;BME280;55048;52.220;5.160;2023-04-22T01:29:13;100742.59;;;10.22;83.52
68230;BME280;55048;52.220;5.160;2023-04-22T01:31:39;100738.53;;;10.19;83.86
68230;BME280;55048;52.220;5.160;2023-04-22T01:34:04;100771.19;;;10.43;83.63
68230;BME280;55048;52.220;5.160;2023-04-22T01:36:30;100740.28;;;10.26;83.29
68230;BME280;55048;52.220;5.160;2023-04-22T01:38:57;100757.81;;;10.38;83.23
68230;BME280;55048;52.220;5.160;2023-04-22T01:41:25;100733.94;;;10.27;83.30
68230;BME280;55048;52.220;5.160;2023-04-22T01:43:56;100767.53;;;10.44;83.25
68230;BME280;55048;52.220;5.160;2023-04-22T01:46:22;100683.53;;;9.91;83.16
68230;BME280;55048;52.220;5.160;2023-04-22T01:48:47;100720.31;;;10.11;83.08
68230;BME280;55048;52.220;5.160;2023-04-22T01:51:16;100770.06;;;10.39;82.99
68230;BME280;55048;52.220;5.160;2023-04-22T01:53:42;100742.59;;;10.22;82.81
68230;BME280;55048;52.220;5.160;2023-04-22T01:56:08;100765.31;;;10.41;83.26
68230;BME280;55048;52.220;5.160;2023-04-22T01:58:34;100747.34;;;10.32;82.81
68230;BME280;55048;52.220;5.160;2023-04-22T02:01:02;100727.25;;;10.12;82.67
68230;BME280;55048;52.220;5.160;2023-04-22T02:03:27;100700.16;;;9.99;82.97
68230;BME280;55048;52.220;5.160;2023-04-22T02:05:54;100740.63;;;10.17;82.33
68230;BME280;55048;52.220;5.160;2023-04-22T02:08:19;100436.31;;;8.32;81.86
68230;BME280;55048;52.220;5.160;2023-04-22T02:10:45;100710.78;;;9.87;82.04
68230;BME280;55048;52.220;5.160;2023-04-22T02:13:10;100633.53;;;9.36;81.86
68230;BME280;55048;52.220;5.160;2023-04-22T02:15:35;100665.94;;;9.62;81.87
68230;BME280;55048;52.220;5.160;2023-04-22T02:18:01;100681.97;;;9.67;81.64
68230;BME280;55048;52.220;5.160;2023-04-22T02:20:26;100750.94;;;10.02;81.79
68230;BME280;55048;52.220;5.160;2023-04-22T02:22:52;100760.41;;;10.10;81.51
68230;BME280;55048;52.220;5.160;2023-04-22T02:25:18;100646.59;;;9.38;81.39
68230;BME280;55048;52.220;5.160;2023-04-22T02:27:44;100746.13;;;9.99;81.16
68230;BME280;55048;52.220;5.160;2023-04-22T02:30:10;100732.63;;;9.89;81.25
68230;BME280;55048;52.220;5.160;2023-04-22T02:32:36;100676.81;;;9.49;80.95
68230;BME280;55048;52.220;5.160;2023-04-22T02:35:03;100720.16;;;9.78;81.00
68230;BME280;55048;52.220;5.160;2023-04-22T02:37:29;100773.13;;;9.96;80.98
68230;BME280;55048;52.220;5.160;2023-04-22T02:39:55;100769.66;;;10.07;81.03
68230;BME280;55048;52.220;5.160;2023-04-22T02:42:21;100708.88;;;9.70;81.03
68230;BME280;55048;52.220;5.160;2023-04-22T02:44:46;100667.81;;;9.38;80.89
68230;BME280;55048;52.220;5.160;2023-04-22T02:47:12;100625.50;;;9.19;80.92
68230;BME280;55048;52.220;5.160;2023-04-22T02:49:38;100696.06;;;9.56;80.99
68230;BME280;55048;52.220;5.160;2023-04-22T02:52:04;100703.09;;;9.62;80.89
68230;BME280;55048;52.220;5.160;2023-04-22T02:54:30;100641.63;;;9.18;80.60
68230;BME280;55048;52.220;5.160;2023-04-22T02:56:55;100613.97;;;9.02;80.61
68230;BME280;55048;52.220;5.160;2023-04-22T02:59:22;100662.97;;;9.35;80.70
68230;BME280;55048;52.220;5.160;2023-04-22T03:01:48;100704.25;;;9.54;80.71
68230;BME280;55048;52.220;5.160;2023-04-22T03:04:25;100658.34;;;9.30;80.64
68230;BME280;55048;52.220;5.160;2023-04-22T03:06:51;100669.06;;;9.35;80.68
68230;BME280;55048;52.220;5.160;2023-04-22T03:09:16;100632.28;;;9.04;80.54
68230;BME280;55048;52.220;5.160;2023-04-22T03:11:42;100688.09;;;9.32;80.63
68230;BME280;55048;52.220;5.160;2023-04-22T03:14:08;100693.88;;;9.41;80.55
68230;BME280;55048;52.220;5.160;2023-04-22T03:16:34;100579.00;;;8.70;80.62
68230;BME280;55048;52.220;5.160;2023-04-22T03:19:02;100644.75;;;9.15;80.54
68230;BME280;55048;52.220;5.160;2023-04-22T03:21:28;100644.41;;;9.11;80.44
68230;BME280;55048;52.220;5.160;2023-04-22T03:23:53;100604.16;;;8.79;80.54
68230;BME280;55048;52.220;5.160;2023-04-22T03:26:19;100654.78;;;9.13;80.40
68230;BME280;55048;52.220;5.160;2023-04-22T03:28:45;100722.16;;;9.59;80.73
68230;BME280;55048;52.220;5.160;2023-04-22T03:31:10;100610.97;;;8.87;80.49
68230;BME280;55048;52.220;5.160;2023-04-22T03:33:37;100658.59;;;9.17;80.56
68230;BME280;55048;52.220;5.160;2023-04-22T03:36:10;100672.44;;;9.19;80.49
68230;BME280;55048;52.220;5.160;2023-04-22T03:38:35;100592.03;;;8.72;80.98
68230;BME280;55048;52.220;5.160;2023-04-22T03:41:01;100681.53;;;9.23;81.11
68230;BME280;55048;52.220;5.160;2023-04-22T03:43:46;100638.28;;;8.99;81.09
68230;BME280;55048;52.220;5.160;2023-04-22T03:46:13;100700.59;;;9.43;81.48
68230;BME280;55048;52.220;5.160;2023-04-22T03:48:43;100579.94;;;8.64;81.21
68230;BME280;55048;52.220;5.160;2023-04-22T03:51:20;100698.72;;;9.44;81.36
68230;BME280;55048;52.220;5.160;2023-04-22T03:53:46;100627.34;;;8.96;81.41
68230;BME280;55048;52.220;5.160;2023-04-22T03:56:17;100577.06;;;8.65;81.60
68230;BME280;55048;52.220;5.160;2023-04-22T03:58:44;100603.00;;;8.87;81.54
68230;BME280;55048;52.220;5.160;2023-04-22T04:01:09;100555.38;;;8.57;81.46
68230;BME280;55048;52.220;5.160;2023-04-22T04:03:36;100661.94;;;9.24;82.04
68230;BME280;55048;52.220;5.160;2023-04-22T04:06:01;100680.16;;;9.44;82.13
68230;BME280;55048;52.220;5.160;2023-04-22T04:08:27;100631.59;;;9.08;82.15
68230;BME280;55048;52.220;5.160;2023-04-22T04:10:52;100562.53;;;8.68;82.26
68230;BME280;55048;52.220;5.160;2023-04-22T04:13:18;100638.84;;;9.13;82.39
68230;BME280;55048;52.220;5.160;2023-04-22T04:16:09;100665.50;;;9.30;82.71
68230;BME280;55048;52.220;5.160;2023-04-22T04:18:37;100649.00;;;9.16;82.86
68230;BME280;55048;52.220;5.160;2023-04-22T04:21:03;100670.22;;;9.28;83.00
68230;BME280;55048;52.220;5.160;2023-04-22T04:23:31;100625.13;;;9.04;83.08
68230;BME280;55048;52.220;5.160;2023-04-22T04:25:57;100596.06;;;8.98;83.37
68230;BME280;55048;52.220;5.160;2023-04-22T04:28:25;100634.00;;;9.22;83.58
68230;BME280;55048;52.220;5.160;2023-04-22T04:30:51;100621.69;;;9.15;83.80
68230;BME280;55048;52.220;5.160;2023-04-22T04:33:17;100586.88;;;9.00;83.66
68230;BME280;55048;52.220;5.160;2023-04-22T04:35:44;100606.91;;;9.08;83.87
68230;BME280;55048;52.220;5.160;2023-04-22T04:38:13;100610.03;;;9.16;83.82
68230;BME280;55048;52.220;5.160;2023-04-22T04:40:38;100660.41;;;9.40;83.98
68230;BME280;55048;52.220;5.160;2023-04-22T04:43:12;100590.09;;;9.02;83.90
68230;BME280;55048;52.220;5.160;2023-04-22T04:45:49;100680.97;;;9.56;83.81
68230;BME280;55048;52.220;5.160;2023-04-22T04:48:19;100636.97;;;9.37;83.96
68230;BME280;55048;52.220;5.160;2023-04-22T04:50:50;100636.66;;;9.33;83.56
68230;BME280;55048;52.220;5.160;2023-04-22T04:53:20;100597.44;;;9.12;83.79
68230;BME280;55048;52.220;5.160;2023-04-22T04:55:46;100540.75;;;8.78;83.66
68230;BME280;55048;52.220;5.160;2023-04-22T04:58:18;100556.19;;;8.92;83.81
68230;BME280;55048;52.220;5.160;2023-04-22T05:00:46;100565.84;;;8.99;84.06
68230;BME280;55048;52.220;5.160;2023-04-22T05:03:16;100604.47;;;9.30;84.29
68230;BME280;55048;52.220;5.160;2023-04-22T05:05:42;100624.16;;;9.45;84.11
68230;BME280;55048;52.220;5.160;2023-04-22T05:08:08;100628.66;;;9.45;84.22
68230;BME280;55048;52.220;5.160;2023-04-22T05:10:35;100626.81;;;9.45;83.93
68230;BME280;55048;52.220;5.160;2023-04-22T05:13:02;100621.19;;;9.42;84.02
68230;BME280;55048;52.220;5.160;2023-04-22T05:15:28;100539.94;;;9.01;84.06
68230;BME280;55048;52.220;5.160;2023-04-22T05:17:53;100606.19;;;9.36;84.24
68230;BME280;55048;52.220;5.160;2023-04-22T05:20:19;100601.00;;;9.29;84.53
68230;BME280;55048;52.220;5.160;2023-04-22T05:22:44;100585.91;;;9.30;84.12
68230;BME280;55048;52.220;5.160;2023-04-22T05:25:10;100681.56;;;9.87;84.13
68230;BME280;55048;52.220;5.160;2023-04-22T05:27:41;100625.41;;;9.55;84.17
68230;BME280;55048;52.220;5.160;2023-04-22T05:30:07;100541.97;;;9.10;84.35
68230;BME280;55048;52.220;5.160;2023-04-22T05:32:33;100665.72;;;9.92;84.40
68230;BME280;55048;52.220;5.160;2023-04-22T05:34:59;100609.97;;;9.52;84.30
68230;BME280;55048;52.220;5.160;2023-04-22T05:37:24;100664.13;;;9.91;84.97
68230;BME280;55048;52.220;5.160;2023-04-22T05:39:50;100608.03;;;9.47;84.74
68230;BME280;55048;52.220;5.160;2023-04-22T05:42:15;100613.91;;;9.49;85.10
68230;BME280;55048;52.220;5.160;2023-04-22T05:44:42;100643.50;;;9.69;85.42
68230;BME280;55048;52.220;5.160;2023-04-22T05:47:07;100573.09;;;9.27;86.09
68230;BME280;55048;52.220;5.160;2023-04-22T05:49:34;100531.47;;;9.04;85.76
68230;BME280;55048;52.220;5.160;2023-04-22T05:52:11;100553.41;;;9.11;85.49
68230;BME280;55048;52.220;5.160;2023-04-22T05:54:48;100609.16;;;9.51;85.67
68230;BME280;55048;52.220;5.160;2023-04-22T05:57:14;100611.47;;;9.48;85.53
68230;BME280;55048;52.220;5.160;2023-04-22T05:59:40;100673.59;;;9.99;85.99
68230;BME280;55048;52.220;5.160;2023-04-22T06:02:05;100635.50;;;9.81;86.35
68230;BME280;55048;52.220;5.160;2023-04-22T06:04:31;100649.03;;;9.80;86.06
68230;BME280;55048;52.220;5.160;2023-04-22T06:06:58;100611.44;;;9.59;85.85
68230;BME280;55048;52.220;5.160;2023-04-22T06:09:24;100683.50;;;10.03;86.68
68230;BME280;55048;52.220;5.160;2023-04-22T06:11:49;100647.47;;;9.95;86.65
68230;BME280;55048;52.220;5.160;2023-04-22T06:14:15;100643.13;;;9.89;86.91
68230;BME280;55048;52.220;5.160;2023-04-22T06:16:42;100674.94;;;10.01;86.56
68230;BME280;55048;52.220;5.160;2023-04-22T06:19:07;100641.59;;;9.93;86.60
68230;BME280;55048;52.220;5.160;2023-04-22T06:21:33;100676.88;;;10.17;86.60
68230;BME280;55048;52.220;5.160;2023-04-22T06:24:01;100673.38;;;10.29;86.75
68230;BME280;55048;52.220;5.160;2023-04-22T06:26:27;100503.63;;;9.30;87.22
68230;BME280;55048;52.220;5.160;2023-04-22T06:28:52;100613.94;;;10.06;86.86
68230;BME280;55048;52.220;5.160;2023-04-22T06:31:19;100524.31;;;9.56;87.29
68230;BME280;55048;52.220;5.160;2023-04-22T06:33:45;100626.91;;;10.31;87.67
68230;BME280;55048;52.220;5.160;2023-04-22T06:36:12;100460.84;;;9.26;87.38
68230;BME280;55048;52.220;5.160;2023-04-22T06:38:38;100535.34;;;9.93;86.96
68230;BME280;55048;52.220;5.160;2023-04-22T06:41:19;100561.78;;;10.17;86.99
68230;BME280;55048;52.220;5.160;2023-04-22T06:43:47;100433.22;;;9.39;87.43
68230;BME280;55048;52.220;5.160;2023-04-22T06:46:16;100539.03;;;9.92;87.08
68230;BME280;55048;52.220;5.160;2023-04-22T06:49:00;100611.22;;;10.63;87.66
68230;BME280;55048;52.220;5.160;2023-04-22T06:51:46;100538.69;;;10.17;87.40
68230;BME280;55048;52.220;5.160;2023-04-22T06:54:11;100542.88;;;10.30;87.49
68230;BME280;55048;52.220;5.160;2023-04-22T06:56:37;100463.63;;;9.93;86.76
68230;BME280;55048;52.220;5.160;2023-04-22T06:59:02;100580.03;;;10.59;87.17
68230;BME280;55048;52.220;5.160;2023-04-22T07:01:28;100607.81;;;11.02;87.17
68230;BME280;55048;52.220;5.160;2023-04-22T07:03:54;100456.78;;;10.14;86.81
68230;BME280;55048;52.220;5.160;2023-04-22T07:06:20;100598.56;;;11.09;87.33
68230;BME280;55048;52.220;5.160;2023-04-22T07:08:45;100614.59;;;11.31;87.29
68230;BME280;55048;52.220;5.160;2023-04-22T07:11:11;100621.34;;;11.39;87.22
68230;BME280;55048;52.220;5.160;2023-04-22T07:13:40;100563.50;;;11.12;87.44
68230;BME280;55048;52.220;5.160;2023-04-22T07:16:06;100612.00;;;11.58;87.48
68230;BME280;55048;52.220;5.160;2023-04-22T07:18:31;100543.66;;;11.20;87.15
68230;BME280;55048;52.220;5.160;2023-04-22T07:20:57;100615.41;;;11.75;86.97
68230;BME280;55048;52.220;5.160;2023-04-22T07:23:22;100583.81;;;11.62;86.36
68230;BME280;55048;52.220;5.160;2023-04-22T07:25:48;100581.00;;;11.74;86.05
68230;BME280;55048;52.220;5.160;2023-04-22T07:28:13;100471.34;;;11.06;86.42
68230;BME280;55048;52.220;5.160;2023-04-22T07:30:38;100580.47;;;11.72;86.84
68230;BME280;55048;52.220;5.160;2023-04-22T07:33:04;100605.09;;;12.06;86.63
68230;BME280;55048;52.220;5.160;2023-04-22T07:35:29;100577.91;;;12.04;85.83
68230;BME280;55048;52.220;5.160;2023-04-22T07:37:55;100613.72;;;12.45;85.52
68230;BME280;55048;52.220;5.160;2023-04-22T07:40:21;100608.47;;;12.56;85.29
68230;BME280;55048;52.220;5.160;2023-04-22T07:42:46;100420.59;;;11.67;83.92
68230;BME280;55048;52.220;5.160;2023-04-22T07:45:12;100542.16;;;12.74;83.18
68230;BME280;55048;52.220;5.160;2023-04-22T07:47:38;100537.75;;;13.00;82.53
68230;BME280;55048;52.220;5.160;2023-04-22T07:50:03;100596.00;;;13.56;82.01
68230;BME280;55048;52.220;5.160;2023-04-22T07:52:29;100422.94;;;12.33;81.10
68230;BME280;55048;52.220;5.160;2023-04-22T07:54:55;100534.19;;;13.27;80.29
68230;BME280;55048;52.220;5.160;2023-04-22T07:57:20;100644.47;;;13.85;80.79
68230;BME280;55048;52.220;5.160;2023-04-22T07:59:47;100624.41;;;13.83;80.75
68230;BME280;55048;52.220;5.160;2023-04-22T08:02:13;100572.19;;;13.49;80.41
68230;BME280;55048;52.220;5.160;2023-04-22T08:04:38;100629.53;;;13.94;80.41
68230;BME280;55048;52.220;5.160;2023-04-22T08:07:04;100603.53;;;13.74;80.32
68230;BME280;55048;52.220;5.160;2023-04-22T08:09:29;100578.38;;;13.65;79.72
68230;BME280;55048;52.220;5.160;2023-04-22T08:11:54;100338.13;;;12.24;79.62
68230;BME280;55048;52.220;5.160;2023-04-22T08:14:20;100566.91;;;13.75;79.26
68230;BME280;55048;52.220;5.160;2023-04-22T08:16:46;100564.53;;;13.89;78.88
68230;BME280;55048;52.220;5.160;2023-04-22T08:19:11;100473.63;;;13.58;78.00
68230;BME280;55048;52.220;5.160;2023-04-22T08:21:37;100547.75;;;14.24;77.60
68230;BME280;55048;52.220;5.160;2023-04-22T08:24:02;100488.63;;;14.10;76.32
68230;BME280;55048;52.220;5.160;2023-04-22T08:26:28;100537.31;;;14.58;75.74
68230;BME280;55048;52.220;5.160;2023-04-22T08:28:53;100533.00;;;14.72;75.33
68230;BME280;55048;52.220;5.160;2023-04-22T08:31:18;100569.56;;;15.18;74.67
68230;BME280;55048;52.220;5.160;2023-04-22T08:33:44;100544.94;;;15.11;74.15
68230;BME280;55048;52.220;5.160;2023-04-22T08:36:09;100583.88;;;15.57;73.39
68230;BME280;55048;52.220;5.160;2023-04-22T08:38:36;100526.66;;;15.28;72.67
68230;BME280;55048;52.220;5.160;2023-04-22T08:41:04;100513.50;;;15.37;72.01
68230;BME280;55048;52.220;5.160;2023-04-22T08:43:31;100477.97;;;15.16;71.66
68230;BME280;55048;52.220;5.160;2023-04-22T08:45:56;100512.38;;;15.43;71.26
68230;BME280;55048;52.220;5.160;2023-04-22T08:48:22;100572.13;;;15.98;70.83
68230;BME280;55048;52.220;5.160;2023-04-22T08:50:48;100436.69;;;15.22;70.22
68230;BME280;55048;52.220;5.160;2023-04-22T08:53:14;100498.63;;;15.60;70.19
68230;BME280;55048;52.220;5.160;2023-04-22T08:55:43;100588.31;;;16.22;69.75
68230;BME280;55048;52.220;5.160;2023-04-22T08:58:09;100293.19;;;14.71;69.50
68230;BME280;55048;52.220;5.160;2023-04-22T09:00:36;100442.41;;;15.89;68.41
68230;BME280;55048;52.220;5.160;2023-04-22T09:03:01;100356.75;;;15.39;68.12
68230;BME280;55048;52.220;5.160;2023-04-22T09:05:32;100581.59;;;16.88;67.93
68230;BME280;55048;52.220;5.160;2023-04-22T09:07:58;100547.53;;;16.83;67.68
68230;BME280;55048;52.220;5.160;2023-04-22T09:10:24;100471.88;;;16.52;67.03
68230;BME280;55048;52.220;5.160;2023-04-22T09:12:50;100517.38;;;16.91;66.21
68230;BME280;55048;52.220;5.160;2023-04-22T09:15:16;100530.72;;;17.20;65.98
68230;BME280;55048;52.220;5.160;2023-04-22T09:17:42;100430.38;;;16.63;65.42
68230;BME280;55048;52.220;5.160;2023-04-22T09:20:08;100564.34;;;17.60;65.36
68230;BME280;55048;52.220;5.160;2023-04-22T09:22:52;100559.34;;;17.54;64.88
68230;BME280;55048;52.220;5.160;2023-04-22T09:25:20;100505.03;;;17.33;65.01
68230;BME280;55048;52.220;5.160;2023-04-22T09:27:58;100490.72;;;17.38;64.43
68230;BME280;55048;52.220;5.160;2023-04-22T09:30:32;100533.97;;;17.60;64.37
68230;BME280;55048;52.220;5.160;2023-04-22T09:33:00;100531.09;;;17.75;64.82
68230;BME280;55048;52.220;5.160;2023-04-22T09:35:30;100456.09;;;17.55;62.97
68230;BME280;55048;52.220;5.160;2023-04-22T09:37:57;100544.00;;;18.11;63.60
68230;BME280;55048;52.220;5.160;2023-04-22T09:40:24;100536.72;;;18.12;63.51
68230;BME280;55048;52.220;5.160;2023-04-22T09:42:51;100444.06;;;17.66;63.11
68230;BME280;55048;52.220;5.160;2023-04-22T09:45:43;100509.00;;;18.44;62.80
68230;BME280;55048;52.220;5.160;2023-04-22T09:48:12;100495.69;;;18.66;62.71
68230;BME280;55048;52.220;5.160;2023-04-22T09:50:39;100443.38;;;18.40;61.46
68230;BME280;55048;52.220;5.160;2023-04-22T09:53:06;100484.94;;;18.80;61.26
68230;BME280;55048;52.220;5.160;2023-04-22T09:55:41;100416.34;;;18.58;60.48
68230;BME280;55048;52.220;5.160;2023-04-22T09:58:15;100340.59;;;18.38;60.72
68230;BME280;55048;52.220;5.160;2023-04-22T10:00:42;100418.22;;;19.13;60.63
68230;BME280;55048;52.220;5.160;2023-04-22T10:03:08;100416.50;;;19.17;59.98
68230;BME280;55048;52.220;5.160;2023-04-22T10:05:34;100471.84;;;19.51;59.16
68230;BME280;55048;52.220;5.160;2023-04-22T10:08:08;100438.16;;;19.26;59.22
68230;BME280;55048;52.220;5.160;2023-04-22T10:10:34;100454.97;;;19.45;58.69
68230;BME280;55048;52.220;5.160;2023-04-22T10:13:00;100496.78;;;19.93;58.96
68230;BME280;55048;52.220;5.160;2023-04-22T10:15:33;100381.41;;;19.31;57.45
68230;BME280;55048;52.220;5.160;2023-04-22T10:18:00;100496.81;;;20.24;57.95
68230;BME280;55048;52.220;5.160;2023-04-22T10:20:28;100511.59;;;20.49;57.56
68230;BME280;55048;52.220;5.160;2023-04-22T10:22:55;100503.88;;;20.42;57.41
68230;BME280;55048;52.220;5.160;2023-04-22T10:25:22;100509.44;;;20.37;57.53
68230;BME280;55048;52.220;5.160;2023-04-22T10:30:35;100503.03;;;20.24;57.13
68230;BME280;55048;52.220;5.160;2023-04-22T10:36:24;100494.44;;;20.53;56.78
68230;BME280;55048;52.220;5.160;2023-04-22T10:41:28;100453.00;;;19.73;57.74
68230;BME280;55048;52.220;5.160;2023-04-22T10:43:55;100455.31;;;19.66;58.37
68230;BME280;55048;52.220;5.160;2023-04-22T10:48:57;100493.47;;;19.73;59.45
68230;BME280;55048;52.220;5.160;2023-04-22T10:51:48;100481.19;;;19.53;58.49
68230;BME280;55048;52.220;5.160;2023-04-22T10:59:26;100455.88;;;19.04;60.69
68230;BME280;55048;52.220;5.160;2023-04-22T11:01:52;100410.88;;;18.36;60.79
68230;BME280;55048;52.220;5.160;2023-04-22T11:04:18;100478.31;;;18.58;61.19
68230;BME280;55048;52.220;5.160;2023-04-22T11:06:44;100483.34;;;18.19;61.42
68230;BME280;55048;52.220;5.160;2023-04-22T11:09:10;100523.97;;;18.50;61.71
68230;BME280;55048;52.220;5.160;2023-04-22T11:11:40;100540.63;;;18.38;62.53
68230;BME280;55048;52.220;5.160;2023-04-22T11:14:07;100511.75;;;18.25;62.30
68230;BME280;55048;52.220;5.160;2023-04-22T11:16:34;100498.25;;;18.11;62.95
68230;BME280;55048;52.220;5.160;2023-04-22T11:18:59;100467.53;;;17.98;62.75
68230;BME280;55048;52.220;5.160;2023-04-22T11:21:24;100544.84;;;18.25;62.69
68230;BME280;55048;52.220;5.160;2023-04-22T11:23:50;100256.03;;;16.53;62.91
68230;BME280;55048;52.220;5.160;2023-04-22T11:26:16;100509.13;;;18.06;63.04
68230;BME280;55048;52.220;5.160;2023-04-22T11:28:46;100508.75;;;17.94;63.09
68230;BME280;55048;52.220;5.160;2023-04-22T11:31:12;100506.94;;;17.70;63.45
68230;BME280;55048;52.220;5.160;2023-04-22T11:33:39;100516.84;;;17.75;63.53
68230;BME280;55048;52.220;5.160;2023-04-22T11:36:09;100362.41;;;16.68;64.28
68230;BME280;55048;52.220;5.160;2023-04-22T11:38:35;100504.41;;;17.60;63.95
68230;BME280;55048;52.220;5.160;2023-04-22T11:41:00;100480.63;;;17.29;64.24
68230;BME280;55048;52.220;5.160;2023-04-22T11:43:25;100503.06;;;17.20;65.25
68230;BME280;55048;52.220;5.160;2023-04-22T11:45:54;100525.00;;;17.27;65.07
68230;BME280;55048;52.220;5.160;2023-04-22T11:48:20;100436.78;;;16.43;64.90
68230;BME280;55048;52.220;5.160;2023-04-22T11:50:45;100466.28;;;16.72;64.85
68230;BME280;55048;52.220;5.160;2023-04-22T11:53:17;100471.94;;;16.71;65.09
68230;BME280;55048;52.220;5.160;2023-04-22T11:55:44;100514.75;;;16.86;66.00
68230;BME280;55048;52.220;5.160;2023-04-22T12:00:40;100191.84;;;14.54;69.68
68230;BME280;55048;52.220;5.160;2023-04-22T12:03:11;100308.97;;;15.12;70.03
68230;BME280;55048;52.220;5.160;2023-04-22T12:05:39;100184.94;;;13.99;70.98
68230;BME280;55048;52.220;5.160;2023-04-22T12:08:14;100490.28;;;16.05;71.64
68230;BME280;55048;52.220;5.160;2023-04-22T12:10:41;100552.44;;;16.47;72.49
68230;BME280;55048;52.220;5.160;2023-04-22T12:13:07;100299.31;;;14.72;72.81
68230;BME280;55048;52.220;5.160;2023-04-22T12:15:41;100409.53;;;15.34;74.19
68230;BME280;55048;52.220;5.160;2023-04-22T12:18:07;100546.47;;;16.21;73.92
68230;BME280;55048;52.220;5.160;2023-04-22T12:20:40;100434.03;;;15.56;74.51
68230;BME280;55048;52.220;5.160;2023-04-22T12:23:15;100529.69;;;16.10;74.64
68230;BME280;55048;52.220;5.160;2023-04-22T12:25:41;100449.06;;;15.52;74.56
68230;BME280;55048;52.220;5.160;2023-04-22T12:28:07;100320.50;;;14.63;74.86
68230;BME280;55048;52.220;5.160;2023-04-22T12:30:33;100549.22;;;16.16;75.05
68230;BME280;55048;52.220;5.160;2023-04-22T12:32:59;100485.91;;;15.80;76.02
68230;BME280;55048;52.220;5.160;2023-04-22T12:35:24;100500.97;;;15.76;76.02
68230;BME280;55048;52.220;5.160;2023-04-22T12:37:51;100344.81;;;14.72;76.20
68230;BME280;55048;52.220;5.160;2023-04-22T12:40:16;100516.59;;;15.64;76.60
68230;BME280;55048;52.220;5.160;2023-04-22T12:42:42;100420.44;;;15.03;78.02
68230;BME280;55048;52.220;5.160;2023-04-22T12:45:08;100143.25;;;13.02;78.02
68230;BME280;55048;52.220;5.160;2023-04-22T12:47:33;100414.78;;;14.55;78.59
68230;BME280;55048;52.220;5.160;2023-04-22T12:49:59;100573.53;;;15.36;80.68
68230;BME280;55048;52.220;5.160;2023-04-22T12:52:37;100567.03;;;15.47;80.31
68230;BME280;55048;52.220;5.160;2023-04-22T12:55:02;100514.44;;;15.07;80.85
68230;BME280;55048;52.220;5.160;2023-04-22T12:57:28;100561.13;;;15.50;80.21
68230;BME280;55048;52.220;5.160;2023-04-22T12:59:54;100549.66;;;15.39;81.58
68230;BME280;55048;52.220;5.160;2023-04-22T13:04:49;100427.03;;;14.66;80.73
68230;BME280;55048;52.220;5.160;2023-04-22T13:07:15;100452.66;;;14.77;81.54
68230;BME280;55048;52.220;5.160;2023-04-22T13:09:42;100521.03;;;15.24;82.14
68230;BME280;55048;52.220;5.160;2023-04-22T13:12:07;100384.28;;;14.51;81.87
68230;BME280;55048;52.220;5.160;2023-04-22T13:14:33;100481.72;;;15.10;81.73